sensor_id;sensor_type;location;lat;lon;timestamp;pressure;altitude;pressure_sealevel;temperature;humidity
57900;BME280;60605;53.716;19.940;2023-05-08T00:02:08;101699.35;;;3.50;79.04
57900;BME280;60605;53.716;19.940;2023-05-08T00:07:11;101703.23;;;3.47;80.10
57900;BME280;60605;53.716;19.940;2023-05-08T00:12:14;101704.50;;;3.42;81.12
57900;BME280;60605;53.716;19.940;2023-05-08T00:17:17;101701.70;;;3.42;82.68
57900;BME280;60605;53.716;19.940;2023-05-08T00:22:20;101700.64;;;3.45;82.86
57900;BME280;60605;53.716;19.940;2023-05-08T00:27:24;101701.70;;;3.49;83.10
57900;BME280;60605;53.716;19.940;2023-05-08T00:32:27;101705.77;;;3.49;82.85
57900;BME280;60605;53.716;19.940;2023-05-08T00:37:30;101713.52;;;3.49;83.60
57900;BME280;60605;53.716;19.940;2023-05-08T00:42:33;101727.98;;;3.46;83.18
57900;BME280;60605;53.716;19.940;2023-05-08T00:47:36;101723.98;;;3.37;82.85
57900;BME280;60605;53.716;19.940;2023-05-08T00:52:40;101725.52;;;3.23;83.02
57900;BME280;60605;53.716;19.940;2023-05-08T00:57:43;101728.77;;;3.14;83.96
57900;BME280;60605;53.716;19.940;2023-05-08T01:02:48;101733.69;;;3.11;84.81
57900;BME280;60605;53.716;19.940;2023-05-08T01:07:51;101738.02;;;3.05;84.32
57900;BME280;60605;53.716;19.940;2023-05-08T01:13:08;101746.22;;;2.99;84.69
57900;BME280;60605;53.716;19.940;2023-05-08T01:18:15;101744.95;;;2.92;84.34
57900;BME280;60605;53.716;19.940;2023-05-08T01:33:52;101749.83;;;2.74;86.73
57900;BME280;60605;53.716;19.940;2023-05-08T01:44:20;101756.14;;;2.67;87.43
57900;BME280;60605;53.716;19.940;2023-05-08T01:49:26;101756.86;;;2.62;88.24
57900;BME280;60605;53.716;19.940;2023-05-08T01:54:33;101754.29;;;2.61;89.32
57900;BME280;60605;53.716;19.940;2023-05-08T01:59:38;101760.31;;;2.60;90.03
57900;BME280;60605;53.716;19.940;2023-05-08T02:04:43;101761.01;;;2.61;91.02
57900;BME280;60605;53.716;19.940;2023-05-08T02:09:46;101760.30;;;2.61;90.60
57900;BME280;60605;53.716;19.940;2023-05-08T02:14:50;101768.54;;;2.58;90.25
57900;BME280;60605;53.716;19.940;2023-05-08T02:19:55;101774.34;;;2.54;90.09
57900;BME280;60605;53.716;19.940;2023-05-08T02:24:59;101773.13;;;2.49;89.94
57900;BME280;60605;53.716;19.940;2023-05-08T02:30:03;101771.60;;;2.44;89.69
57900;BME280;60605;53.716;19.940;2023-05-08T02:35:06;101772.98;;;2.37;90.31
57900;BME280;60605;53.716;19.940;2023-05-08T02:40:10;101781.85;;;2.31;90.12
57900;BME280;60605;53.716;19.940;2023-05-08T02:45:15;101785.08;;;2.25;90.14
57900;BME280;60605;53.716;19.940;2023-05-08T02:50:19;101789.71;;;2.20;90.43
57900;BME280;60605;53.716;19.940;2023-05-08T03:00:50;101787.66;;;2.19;91.49
57900;BME280;60605;53.716;19.940;2023-05-08T03:05:56;101788.31;;;2.20;91.55
57900;BME280;60605;53.716;19.940;2023-05-08T03:11:12;101791.23;;;2.21;91.42
57900;BME280;60605;53.716;19.940;2023-05-08T03:16:17;101793.98;;;2.23;91.26
57900;BME280;60605;53.716;19.940;2023-05-08T03:21:23;101797.05;;;2.26;91.48
57900;BME280;60605;53.716;19.940;2023-05-08T03:26:28;101793.74;;;2.29;91.57
57900;BME280;60605;53.716;19.940;2023-05-08T03:31:31;101797.05;;;2.34;91.26
57900;BME280;60605;53.716;19.940;2023-05-08T03:36:35;101800.16;;;2.40;91.07
57900;BME280;60605;53.716;19.940;2023-05-08T03:41:38;101803.98;;;2.50;91.12
57900;BME280;60605;53.716;19.940;2023-05-08T03:46:41;101803.70;;;2.64;90.98
57900;BME280;60605;53.716;19.940;2023-05-08T03:51:46;101803.47;;;2.90;90.77
57900;BME280;60605;53.716;19.940;2023-05-08T03:56:52;101806.26;;;3.64;90.51
57900;BME280;60605;53.716;19.940;2023-05-08T04:02:03;101804.31;;;5.02;88.87
57900;BME280;60605;53.716;19.940;2023-05-08T04:12:21;101806.49;;;8.24;80.50
57900;BME280;60605;53.716;19.940;2023-05-08T04:22:37;101811.92;;;11.13;71.35
57900;BME280;60605;53.716;19.940;2023-05-08T04:27:41;101818.49;;;12.23;66.39
57900;BME280;60605;53.716;19.940;2023-05-08T04:32:45;101816.91;;;13.32;62.14
57900;BME280;60605;53.716;19.940;2023-05-08T04:37:49;101822.05;;;14.20;58.03
57900;BME280;60605;53.716;19.940;2023-05-08T04:42:53;101826.45;;;15.08;54.96
57900;BME280;60605;53.716;19.940;2023-05-08T04:47:56;101826.84;;;15.88;52.16
57900;BME280;60605;53.716;19.940;2023-05-08T04:52:59;101828.91;;;16.36;50.20
57900;BME280;60605;53.716;19.940;2023-05-08T04:58:02;101833.75;;;17.14;48.93
57900;BME280;60605;53.716;19.940;2023-05-08T05:03:05;101842.62;;;18.06;45.88
57900;BME280;60605;53.716;19.940;2023-05-08T05:08:08;101840.97;;;18.77;44.07
57900;BME280;60605;53.716;19.940;2023-05-08T05:13:11;101847.67;;;19.50;42.54
57900;BME280;60605;53.716;19.940;2023-05-08T05:18:14;101853.59;;;20.12;40.88
57900;BME280;60605;53.716;19.940;2023-05-08T05:23:17;101850.45;;;20.71;39.23
57900;BME280;60605;53.716;19.940;2023-05-08T05:28:20;101853.55;;;21.39;38.78
57900;BME280;60605;53.716;19.940;2023-05-08T05:33:23;101858.38;;;22.20;37.89
57900;BME280;60605;53.716;19.940;2023-05-08T05:38:26;101862.03;;;22.90;36.57
57900;BME280;60605;53.716;19.940;2023-05-08T05:43:30;101867.03;;;23.49;36.07
57900;BME280;60605;53.716;19.940;2023-05-08T05:48:34;101873.69;;;24.17;34.73
57900;BME280;60605;53.716;19.940;2023-05-08T05:53:37;101875.84;;;24.86;34.54
57900;BME280;60605;53.716;19.940;2023-05-08T05:58:40;101872.34;;;25.66;33.40
57900;BME280;60605;53.716;19.940;2023-05-08T06:03:46;101875.83;;;26.12;32.73
57900;BME280;60605;53.716;19.940;2023-05-08T06:08:50;101882.14;;;26.80;31.90
57900;BME280;60605;53.716;19.940;2023-05-08T06:13:53;101882.96;;;27.36;31.18
57900;BME280;60605;53.716;19.940;2023-05-08T06:18:56;101885.96;;;28.06;30.10
57900;BME280;60605;53.716;19.940;2023-05-08T06:23:59;101891.29;;;28.71;29.54
57900;BME280;60605;53.716;19.940;2023-05-08T06:29:03;101891.04;;;29.48;28.12
57900;BME280;60605;53.716;19.940;2023-05-08T06:34:06;101894.64;;;29.97;27.14
57900;BME280;60605;53.716;19.940;2023-05-08T06:39:09;101898.05;;;30.58;26.29
57900;BME280;60605;53.716;19.940;2023-05-08T06:44:13;101898.00;;;30.99;24.98
57900;BME280;60605;53.716;19.940;2023-05-08T06:49:16;101895.05;;;31.17;24.78
57900;BME280;60605;53.716;19.940;2023-05-08T06:54:19;101893.64;;;31.54;24.41
57900;BME280;60605;53.716;19.940;2023-05-08T06:59:22;101897.27;;;31.75;22.86
57900;BME280;60605;53.716;19.940;2023-05-08T07:04:26;101897.35;;;31.35;22.78
57900;BME280;60605;53.716;19.940;2023-05-08T07:09:30;101897.20;;;31.55;23.30
57900;BME280;60605;53.716;19.940;2023-05-08T07:14:33;101901.76;;;32.21;22.00
57900;BME280;60605;53.716;19.940;2023-05-08T07:19:36;101902.66;;;32.63;20.89
57900;BME280;60605;53.716;19.940;2023-05-08T07:24:40;101904.35;;;32.49;20.40
57900;BME280;60605;53.716;19.940;2023-05-08T07:29:43;101906.28;;;32.80;20.51
57900;BME280;60605;53.716;19.940;2023-05-08T07:34:46;101905.77;;;32.88;19.79
57900;BME280;60605;53.716;19.940;2023-05-08T07:39:50;101902.52;;;32.90;19.49
57900;BME280;60605;53.716;19.940;2023-05-08T07:44:53;101892.29;;;33.40;19.59
57900;BME280;60605;53.716;19.940;2023-05-08T07:49:56;101891.68;;;33.81;18.53
57900;BME280;60605;53.716;19.940;2023-05-08T07:55:00;101892.98;;;34.04;17.55
57900;BME280;60605;53.716;19.940;2023-05-08T08:00:07;101889.05;;;34.15;17.15
57900;BME280;60605;53.716;19.940;2023-05-08T08:05:10;101887.24;;;34.46;16.11
57900;BME280;60605;53.716;19.940;2023-05-08T08:10:14;101889.13;;;33.99;15.99
57900;BME280;60605;53.716;19.940;2023-05-08T08:15:17;101887.09;;;33.84;16.18
57900;BME280;60605;53.716;19.940;2023-05-08T08:20:20;101883.46;;;34.38;15.47
57900;BME280;60605;53.716;19.940;2023-05-08T08:25:24;101882.54;;;34.50;15.56
57900;BME280;60605;53.716;19.940;2023-05-08T08:30:27;101876.70;;;35.09;15.78
57900;BME280;60605;53.716;19.940;2023-05-08T08:35:31;101879.70;;;35.63;15.36
57900;BME280;60605;53.716;19.940;2023-05-08T08:40:38;101878.39;;;36.48;15.66
57900;BME280;60605;53.716;19.940;2023-05-08T08:45:42;101884.66;;;37.27;14.77
57900;BME280;60605;53.716;19.940;2023-05-08T08:50:46;101881.92;;;35.67;13.92
57900;BME280;60605;53.716;19.940;2023-05-08T08:55:51;101877.02;;;34.88;15.56
57900;BME280;60605;53.716;19.940;2023-05-08T09:00:55;101876.58;;;35.25;15.59
57900;BME280;60605;53.716;19.940;2023-05-08T09:06:00;101874.19;;;35.03;15.31
57900;BME280;60605;53.716;19.940;2023-05-08T09:11:03;101872.92;;;34.77;14.94
57900;BME280;60605;53.716;19.940;2023-05-08T09:16:06;101862.90;;;34.26;15.29
57900;BME280;60605;53.716;19.940;2023-05-08T09:21:10;101858.67;;;34.37;15.90
57900;BME280;60605;53.716;19.940;2023-05-08T09:26:25;101853.55;;;34.58;15.52
57900;BME280;60605;53.716;19.940;2023-05-08T09:31:35;101849.50;;;34.41;15.17
57900;BME280;60605;53.716;19.940;2023-05-08T09:36:38;101850.78;;;34.04;15.14
57900;BME280;60605;53.716;19.940;2023-05-08T09:41:55;101847.81;;;33.72;15.47
57900;BME280;60605;53.716;19.940;2023-05-08T09:47:18;101841.13;;;33.92;15.77
57900;BME280;60605;53.716;19.940;2023-05-08T09:52:22;101839.81;;;34.11;15.62
57900;BME280;60605;53.716;19.940;2023-05-08T09:57:26;101841.34;;;33.62;15.65
57900;BME280;60605;53.716;19.940;2023-05-08T10:02:29;101837.34;;;33.44;15.94
57900;BME280;60605;53.716;19.940;2023-05-08T10:07:34;101836.26;;;32.27;16.69
57900;BME280;60605;53.716;19.940;2023-05-08T10:12:39;101830.38;;;30.10;18.01
57900;BME280;60605;53.716;19.940;2023-05-08T10:17:45;101820.25;;;27.91;19.25
57900;BME280;60605;53.716;19.940;2023-05-08T10:22:52;101813.29;;;26.17;20.60
57900;BME280;60605;53.716;19.940;2023-05-08T10:28:04;101809.30;;;24.73;21.38
57900;BME280;60605;53.716;19.940;2023-05-08T10:33:09;101800.48;;;23.06;22.46
57900;BME280;60605;53.716;19.940;2023-05-08T10:38:12;101800.08;;;22.46;24.65
57900;BME280;60605;53.716;19.940;2023-05-08T10:43:17;101792.40;;;22.16;24.29
57900;BME280;60605;53.716;19.940;2023-05-08T10:53:45;101778.23;;;20.54;24.43
57900;BME280;60605;53.716;19.940;2023-05-08T10:58:54;101782.63;;;19.75;25.40
57900;BME280;60605;53.716;19.940;2023-05-08T11:03:57;101779.98;;;19.62;25.81
57900;BME280;60605;53.716;19.940;2023-05-08T11:09:01;101774.19;;;19.63;26.76
57900;BME280;60605;53.716;19.940;2023-05-08T11:19:16;101769.38;;;19.61;26.21
57900;BME280;60605;53.716;19.940;2023-05-08T11:24:22;101766.00;;;19.63;26.55
57900;BME280;60605;53.716;19.940;2023-05-08T11:29:34;101762.64;;;19.75;26.30
57900;BME280;60605;53.716;19.940;2023-05-08T11:39:45;101753.73;;;20.06;25.92
57900;BME280;60605;53.716;19.940;2023-05-08T11:44:48;101753.55;;;19.86;25.46
57900;BME280;60605;53.716;19.940;2023-05-08T11:49:53;101746.41;;;19.84;26.41
57900;BME280;60605;53.716;19.940;2023-05-08T11:54:59;101741.82;;;19.98;27.13
57900;BME280;60605;53.716;19.940;2023-05-08T12:00:04;101740.20;;;20.17;27.39
57900;BME280;60605;53.716;19.940;2023-05-08T12:05:08;101738.33;;;20.19;26.57
57900;BME280;60605;53.716;19.940;2023-05-08T12:10:11;101730.20;;;20.29;27.06
57900;BME280;60605;53.716;19.940;2023-05-08T12:15:15;101728.02;;;20.49;27.29
57900;BME280;60605;53.716;19.940;2023-05-08T12:20:19;101722.02;;;20.64;26.48
57900;BME280;60605;53.716;19.940;2023-05-08T12:25:22;101720.63;;;20.56;26.07
57900;BME280;60605;53.716;19.940;2023-05-08T12:30:27;101713.08;;;20.38;25.13
57900;BME280;60605;53.716;19.940;2023-05-08T12:35:31;101711.48;;;20.28;26.54
57900;BME280;60605;53.716;19.940;2023-05-08T12:40:39;101713.62;;;20.20;25.91
57900;BME280;60605;53.716;19.940;2023-05-08T12:45:42;101710.83;;;20.16;26.74
57900;BME280;60605;53.716;19.940;2023-05-08T12:50:45;101709.95;;;20.22;26.59
57900;BME280;60605;53.716;19.940;2023-05-08T12:55:50;101713.06;;;20.35;26.79
57900;BME280;60605;53.716;19.940;2023-05-08T13:01:03;101707.29;;;20.52;26.49
57900;BME280;60605;53.716;19.940;2023-05-08T13:06:09;101697.96;;;20.66;26.48
57900;BME280;60605;53.716;19.940;2023-05-08T13:11:27;101693.27;;;20.69;26.85
57900;BME280;60605;53.716;19.940;2023-05-08T13:16:40;101696.20;;;20.68;26.70
57900;BME280;60605;53.716;19.940;2023-05-08T13:21:43;101686.68;;;20.54;26.12
57900;BME280;60605;53.716;19.940;2023-05-08T13:26:49;101681.27;;;20.39;26.82
57900;BME280;60605;53.716;19.940;2023-05-08T13:31:52;101681.52;;;20.43;26.80
57900;BME280;60605;53.716;19.940;2023-05-08T13:36:57;101677.92;;;20.38;26.35
57900;BME280;60605;53.716;19.940;2023-05-08T13:42:00;101669.89;;;20.28;26.58
57900;BME280;60605;53.716;19.940;2023-05-08T13:47:03;101665.86;;;20.18;26.24
57900;BME280;60605;53.716;19.940;2023-05-08T13:52:06;101658.83;;;20.00;26.04
57900;BME280;60605;53.716;19.940;2023-05-08T13:57:09;101654.77;;;19.93;26.73
57900;BME280;60605;53.716;19.940;2023-05-08T14:02:13;101651.85;;;20.01;27.14
57900;BME280;60605;53.716;19.940;2023-05-08T14:07:16;101652.28;;;19.87;25.99
57900;BME280;60605;53.716;19.940;2023-05-08T14:12:20;101647.13;;;19.57;25.95
57900;BME280;60605;53.716;19.940;2023-05-08T14:17:23;101640.44;;;19.49;26.64
57900;BME280;60605;53.716;19.940;2023-05-08T14:22:26;101635.63;;;19.51;27.05
57900;BME280;60605;53.716;19.940;2023-05-08T14:27:29;101635.64;;;19.57;27.51
57900;BME280;60605;53.716;19.940;2023-05-08T14:32:32;101635.05;;;19.67;27.41
57900;BME280;60605;53.716;19.940;2023-05-08T14:37:36;101632.60;;;19.74;27.69
57900;BME280;60605;53.716;19.940;2023-05-08T14:42:39;101631.91;;;19.75;28.05
57900;BME280;60605;53.716;19.940;2023-05-08T14:47:42;101636.20;;;19.75;27.71
57900;BME280;60605;53.716;19.940;2023-05-08T14:52:47;101634.73;;;19.74;27.65
57900;BME280;60605;53.716;19.940;2023-05-08T14:57:50;101629.98;;;19.73;27.75
57900;BME280;60605;53.716;19.940;2023-05-08T15:02:53;101622.70;;;19.71;27.78
57900;BME280;60605;53.716;19.940;2023-05-08T15:07:56;101622.45;;;19.69;27.94
57900;BME280;60605;53.716;19.940;2023-05-08T15:12:59;101619.16;;;19.69;27.75
57900;BME280;60605;53.716;19.940;2023-05-08T15:18:03;101616.06;;;19.68;27.95
57900;BME280;60605;53.716;19.940;2023-05-08T15:23:07;101611.66;;;19.64;27.55
57900;BME280;60605;53.716;19.940;2023-05-08T15:28:10;101610.35;;;19.56;27.55
57900;BME280;60605;53.716;19.940;2023-05-08T15:33:13;101608.70;;;19.47;27.90
57900;BME280;60605;53.716;19.940;2023-05-08T15:38:16;101604.86;;;19.40;27.73
57900;BME280;60605;53.716;19.940;2023-05-08T15:43:19;101603.56;;;19.28;27.77
57900;BME280;60605;53.716;19.940;2023-05-08T15:48:23;101598.70;;;19.19;28.11
57900;BME280;60605;53.716;19.940;2023-05-08T15:53:26;101596.49;;;19.13;28.27
57900;BME280;60605;53.716;19.940;2023-05-08T15:58:29;101594.92;;;19.03;28.09
57900;BME280;60605;53.716;19.940;2023-05-08T16:03:32;101593.63;;;18.89;27.51
57900;BME280;60605;53.716;19.940;2023-05-08T16:08:35;101596.02;;;18.77;27.59
57900;BME280;60605;53.716;19.940;2023-05-08T16:13:39;101590.77;;;18.67;27.60
57900;BME280;60605;53.716;19.940;2023-05-08T16:18:42;101587.49;;;18.58;27.68
57900;BME280;60605;53.716;19.940;2023-05-08T16:23:46;101586.27;;;18.48;28.42
57900;BME280;60605;53.716;19.940;2023-05-08T16:28:49;101584.54;;;18.37;28.41
57900;BME280;60605;53.716;19.940;2023-05-08T16:33:53;101584.89;;;18.16;27.36
57900;BME280;60605;53.716;19.940;2023-05-08T16:38:56;101581.92;;;17.99;27.40
57900;BME280;60605;53.716;19.940;2023-05-08T16:43:59;101584.73;;;17.89;27.38
57900;BME280;60605;53.716;19.940;2023-05-08T16:49:02;101588.91;;;17.79;27.60
57900;BME280;60605;53.716;19.940;2023-05-08T16:54:05;101588.52;;;17.73;27.55
57900;BME280;60605;53.716;19.940;2023-05-08T16:59:08;101590.91;;;17.66;27.60
57900;BME280;60605;53.716;19.940;2023-05-08T17:04:12;101587.27;;;17.56;27.70
57900;BME280;60605;53.716;19.940;2023-05-08T17:09:15;101587.36;;;17.47;27.62
57900;BME280;60605;53.716;19.940;2023-05-08T17:14:20;101592.86;;;17.37;27.77
57900;BME280;60605;53.716;19.940;2023-05-08T17:19:23;101593.89;;;17.28;27.80
57900;BME280;60605;53.716;19.940;2023-05-08T17:24:28;101594.29;;;17.16;28.10
57900;BME280;60605;53.716;19.940;2023-05-08T17:29:31;101592.33;;;17.02;28.68
57900;BME280;60605;53.716;19.940;2023-05-08T17:34:35;101596.11;;;16.89;29.09
57900;BME280;60605;53.716;19.940;2023-05-08T17:39:39;101593.65;;;16.75;29.33
57900;BME280;60605;53.716;19.940;2023-05-08T17:44:42;101595.51;;;16.59;29.79
57900;BME280;60605;53.716;19.940;2023-05-08T17:49:45;101597.07;;;16.40;30.25
57900;BME280;60605;53.716;19.940;2023-05-08T17:54:49;101595.40;;;16.18;30.71
57900;BME280;60605;53.716;19.940;2023-05-08T17:59:52;101603.10;;;15.90;31.98
57900;BME280;60605;53.716;19.940;2023-05-08T18:04:56;101604.15;;;15.57;32.76
57900;BME280;60605;53.716;19.940;2023-05-08T18:09:59;101608.90;;;15.22;33.85
57900;BME280;60605;53.716;19.940;2023-05-08T18:15:03;101614.58;;;14.92;34.92
57900;BME280;60605;53.716;19.940;2023-05-08T18:20:07;101620.96;;;14.61;36.30
57900;BME280;60605;53.716;19.940;2023-05-08T18:25:11;101626.30;;;14.26;38.00
57900;BME280;60605;53.716;19.940;2023-05-08T18:30:15;101630.94;;;13.91;39.86
57900;BME280;60605;53.716;19.940;2023-05-08T18:35:18;101637.91;;;13.54;41.68
57900;BME280;60605;53.716;19.940;2023-05-08T18:40:23;101644.27;;;13.16;42.99
57900;BME280;60605;53.716;19.940;2023-05-08T18:45:27;101649.53;;;12.81;43.22
57900;BME280;60605;53.716;19.940;2023-05-08T18:50:30;101656.46;;;12.53;43.65
57900;BME280;60605;53.716;19.940;2023-05-08T18:55:34;101659.58;;;12.31;44.92
57900;BME280;60605;53.716;19.940;2023-05-08T19:00:37;101665.05;;;12.15;46.10
57900;BME280;60605;53.716;19.940;2023-05-08T19:05:40;101668.48;;;11.98;47.18
57900;BME280;60605;53.716;19.940;2023-05-08T19:10:44;101667.67;;;11.84;46.99
57900;BME280;60605;53.716;19.940;2023-05-08T19:15:48;101665.45;;;11.88;46.46
57900;BME280;60605;53.716;19.940;2023-05-08T19:20:52;101659.79;;;11.80;47.08
57900;BME280;60605;53.716;19.940;2023-05-08T19:25:55;101659.66;;;11.62;47.44
57900;BME280;60605;53.716;19.940;2023-05-08T19:30:59;101662.88;;;11.43;48.21
57900;BME280;60605;53.716;19.940;2023-05-08T19:36:02;101662.80;;;11.18;49.86
57900;BME280;60605;53.716;19.940;2023-05-08T19:41:06;101666.83;;;10.94;50.06
57900;BME280;60605;53.716;19.940;2023-05-08T19:46:09;101668.92;;;10.77;51.06
57900;BME280;60605;53.716;19.940;2023-05-08T19:51:12;101669.30;;;10.68;51.71
57900;BME280;60605;53.716;19.940;2023-05-08T19:56:18;101668.75;;;10.65;51.44
57900;BME280;60605;53.716;19.940;2023-05-08T20:01:21;101670.29;;;10.71;50.63
57900;BME280;60605;53.716;19.940;2023-05-08T20:06:24;101668.98;;;10.76;49.95
57900;BME280;60605;53.716;19.940;2023-05-08T20:11:28;101667.08;;;10.78;49.75
57900;BME280;60605;53.716;19.940;2023-05-08T20:16:32;101667.20;;;10.78;49.44
57900;BME280;60605;53.716;19.940;2023-05-08T20:21:35;101667.80;;;10.73;49.31
57900;BME280;60605;53.716;19.940;2023-05-08T20:26:39;101666.71;;;10.66;49.63
57900;BME280;60605;53.716;19.940;2023-05-08T20:31:43;101672.14;;;10.65;49.69
57900;BME280;60605;53.716;19.940;2023-05-08T20:36:46;101672.40;;;10.64;49.85
57900;BME280;60605;53.716;19.940;2023-05-08T20:41:50;101672.67;;;10.63;50.18
57900;BME280;60605;53.716;19.940;2023-05-08T20:46:54;101675.58;;;10.62;50.44
57900;BME280;60605;53.716;19.940;2023-05-08T20:51:59;101673.05;;;10.58;50.44
57900;BME280;60605;53.716;19.940;2023-05-08T20:57:03;101677.57;;;10.46;50.43
57900;BME280;60605;53.716;19.940;2023-05-08T21:02:06;101679.34;;;10.23;50.91
57900;BME280;60605;53.716;19.940;2023-05-08T21:07:10;101685.66;;;9.91;51.97
57900;BME280;60605;53.716;19.940;2023-05-08T21:12:13;101686.39;;;9.60;53.30
57900;BME280;60605;53.716;19.940;2023-05-08T21:17:16;101680.48;;;9.31;54.61
57900;BME280;60605;53.716;19.940;2023-05-08T21:22:20;101684.86;;;9.10;55.76
57900;BME280;60605;53.716;19.940;2023-05-08T21:27:23;101686.80;;;9.01;56.86
57900;BME280;60605;53.716;19.940;2023-05-08T21:32:28;101686.98;;;8.95;57.26
57900;BME280;60605;53.716;19.940;2023-05-08T21:37:32;101686.09;;;8.90;57.23
57900;BME280;60605;53.716;19.940;2023-05-08T21:42:35;101688.56;;;8.80;57.40
57900;BME280;60605;53.716;19.940;2023-05-08T21:47:38;101690.40;;;8.67;58.03
57900;BME280;60605;53.716;19.940;2023-05-08T21:52:43;101688.59;;;8.49;58.76
57900;BME280;60605;53.716;19.940;2023-05-08T21:57:47;101687.88;;;8.29;60.21
57900;BME280;60605;53.716;19.940;2023-05-08T22:02:50;101690.08;;;8.09;61.34
57900;BME280;60605;53.716;19.940;2023-05-08T22:07:53;101690.98;;;7.93;62.37
57900;BME280;60605;53.716;19.940;2023-05-08T22:12:56;101693.98;;;7.80;63.05
57900;BME280;60605;53.716;19.940;2023-05-08T22:18:00;101691.80;;;7.67;63.78
57900;BME280;60605;53.716;19.940;2023-05-08T22:23:04;101689.65;;;7.54;64.44
57900;BME280;60605;53.716;19.940;2023-05-08T22:28:09;101683.70;;;7.42;65.18
57900;BME280;60605;53.716;19.940;2023-05-08T22:33:12;101688.52;;;7.30;65.84
57900;BME280;60605;53.716;19.940;2023-05-08T22:38:15;101691.77;;;7.18;66.45
57900;BME280;60605;53.716;19.940;2023-05-08T22:43:18;101689.11;;;7.06;67.05
57900;BME280;60605;53.716;19.940;2023-05-08T22:48:21;101691.56;;;6.95;67.68
57900;BME280;60605;53.716;19.940;2023-05-08T22:53:24;101699.39;;;6.84;68.56
57900;BME280;60605;53.716;19.940;2023-05-08T22:58:27;101706.10;;;6.70;69.67
57900;BME280;60605;53.716;19.940;2023-05-08T23:03:30;101702.18;;;6.56;70.71
57900;BME280;60605;53.716;19.940;2023-05-08T23:08:33;101691.66;;;6.42;71.00
57900;BME280;60605;53.716;19.940;2023-05-08T23:13:36;101691.98;;;6.31;71.31
57900;BME280;60605;53.716;19.940;2023-05-08T23:18:39;101686.21;;;6.21;71.79
57900;BME280;60605;53.716;19.940;2023-05-08T23:23:43;101685.02;;;6.11;72.28
57900;BME280;60605;53.716;19.940;2023-05-08T23:28:46;101682.20;;;6.11;73.69
57900;BME280;60605;53.716;19.940;2023-05-08T23:33:49;101683.11;;;6.14;74.03
57900;BME280;60605;53.716;19.940;2023-05-08T23:38:52;101681.73;;;6.10;73.87
57900;BME280;60605;53.716;19.940;2023-05-08T23:43:55;101682.48;;;6.00;74.09
57900;BME280;60605;53.716;19.940;2023-05-08T23:48:58;101681.00;;;5.89;74.44
57900;BME280;60605;53.716;19.940;2023-05-08T23:54:01;101682.96;;;5.77;75.26
57900;BME280;60605;53.716;19.940;2023-05-08T23:59:05;101679.19;;;5.68;76.40
